Accueil
METAR-TAF:

METAR-TAF

Aéroports :

North Central State Airport

Pawtucket, Rhode Island, États-Unis

latitude: 41-55N, longitude: 071-30W, altitude: 134 m

Observation

Le bulletin a été fait il y a 55 minutes, à 19:56 UTC
Vent calme
Température 19°C
Humidité 83%
Pression 1011 hPa
Visibilité: 16.1 km
Nuages épars à une hauteur de 3700 ft
Nuages épars à une hauteur de 5500 ft

METAR: KSFZ 121956Z AUTO 00000KT 10SM SCT037 SCT055 19/16 A2986 RMK AO2 SLP118 T01940161 PNO $

Heure: 16:51 (20:51 UTC)


TAF: absent

Observations et prévisions météorologiques de plus de 4000 aéroports (messages METAR et TAF).

Les stations disponibles sont représentées par des disques jaunes et rouges sur la carte.

Passer la souris dessus pour voir le nom de la station.

Cliquer dessus pour voir les observations et prévisions météorologiques.

Pour changer de carte: cliquez sur les boutons verts avec une croix noire pour zoomer, sur le bouton vert avec un tiret pour effectuer un zoom arrière, ou sur les flèches vertes pour les cartes adjacentes.


METAR-TAF: